sensor_id;sensor_type;location;lat;lon;timestamp;P1;durP1;ratioP1;P2;durP2;ratioP2
16975;SDS011;8604;48.148;-1.786;2023-06-22T00:01:35;9.40;;;5.97;;
16975;SDS011;8604;48.148;-1.786;2023-06-22T00:04:05;9.70;;;5.23;;
16975;SDS011;8604;48.148;-1.786;2023-06-22T00:06:33;10.73;;;6.00;;
16975;SDS011;8604;48.148;-1.786;2023-06-22T00:09:01;12.40;;;5.87;;
16975;SDS011;8604;48.148;-1.786;2023-06-22T00:11:30;10.27;;;5.10;;
16975;SDS011;8604;48.148;-1.786;2023-06-22T00:14:00;9.93;;;5.20;;
16975;SDS011;8604;48.148;-1.786;2023-06-22T00:16:28;8.90;;;5.03;;
16975;SDS011;8604;48.148;-1.786;2023-06-22T00:18:56;11.27;;;5.57;;
16975;SDS011;8604;48.148;-1.786;2023-06-22T00:21:28;8.40;;;5.40;;
16975;SDS011;8604;48.148;-1.786;2023-06-22T00:23:57;9.70;;;5.87;;
16975;SDS011;8604;48.148;-1.786;2023-06-22T00:26:25;9.47;;;5.77;;
16975;SDS011;8604;48.148;-1.786;2023-06-22T00:28:54;8.70;;;5.70;;
16975;SDS011;8604;48.148;-1.786;2023-06-22T00:31:22;8.60;;;6.17;;
16975;SDS011;8604;48.148;-1.786;2023-06-22T00:33:53;9.67;;;5.63;;
16975;SDS011;8604;48.148;-1.786;2023-06-22T00:36:22;9.03;;;5.20;;
16975;SDS011;8604;48.148;-1.786;2023-06-22T00:38:52;9.87;;;6.00;;
16975;SDS011;8604;48.148;-1.786;2023-06-22T00:41:21;10.67;;;5.27;;
16975;SDS011;8604;48.148;-1.786;2023-06-22T00:43:49;9.60;;;5.20;;
16975;SDS011;8604;48.148;-1.786;2023-06-22T00:46:18;9.57;;;5.80;;
16975;SDS011;8604;48.148;-1.786;2023-06-22T00:48:46;9.97;;;5.73;;
16975;SDS011;8604;48.148;-1.786;2023-06-22T00:51:15;9.37;;;5.50;;
16975;SDS011;8604;48.148;-1.786;2023-06-22T00:53:44;8.60;;;5.37;;
16975;SDS011;8604;48.148;-1.786;2023-06-22T00:56:14;9.60;;;5.57;;
16975;SDS011;8604;48.148;-1.786;2023-06-22T00:58:45;10.53;;;5.70;;
16975;SDS011;8604;48.148;-1.786;2023-06-22T01:01:16;11.03;;;5.73;;
16975;SDS011;8604;48.148;-1.786;2023-06-22T01:03:44;8.40;;;5.27;;
16975;SDS011;8604;48.148;-1.786;2023-06-22T01:06:14;8.80;;;5.70;;
16975;SDS011;8604;48.148;-1.786;2023-06-22T01:08:46;9.13;;;5.50;;
16975;SDS011;8604;48.148;-1.786;2023-06-22T01:11:32;8.83;;;4.93;;
16975;SDS011;8604;48.148;-1.786;2023-06-22T01:14:06;9.37;;;5.13;;
16975;SDS011;8604;48.148;-1.786;2023-06-22T01:16:40;9.00;;;5.00;;
16975;SDS011;8604;48.148;-1.786;2023-06-22T01:19:15;10.67;;;5.43;;
16975;SDS011;8604;48.148;-1.786;2023-06-22T01:21:56;6.87;;;4.87;;
16975;SDS011;8604;48.148;-1.786;2023-06-22T01:24:32;12.73;;;5.50;;
16975;SDS011;8604;48.148;-1.786;2023-06-22T01:27:23;8.93;;;5.77;;
16975;SDS011;8604;48.148;-1.786;2023-06-22T01:30:02;7.83;;;5.07;;
16975;SDS011;8604;48.148;-1.786;2023-06-22T01:32:34;8.83;;;4.80;;
16975;SDS011;8604;48.148;-1.786;2023-06-22T01:35:06;7.70;;;4.90;;
16975;SDS011;8604;48.148;-1.786;2023-06-22T01:37:36;10.00;;;5.00;;
16975;SDS011;8604;48.148;-1.786;2023-06-22T01:40:06;7.43;;;5.03;;
16975;SDS011;8604;48.148;-1.786;2023-06-22T01:42:36;8.90;;;5.30;;
16975;SDS011;8604;48.148;-1.786;2023-06-22T01:45:08;7.77;;;5.00;;
16975;SDS011;8604;48.148;-1.786;2023-06-22T01:47:38;8.63;;;5.17;;
16975;SDS011;8604;48.148;-1.786;2023-06-22T01:50:08;7.97;;;4.90;;
16975;SDS011;8604;48.148;-1.786;2023-06-22T01:52:37;8.47;;;5.10;;
16975;SDS011;8604;48.148;-1.786;2023-06-22T01:55:06;11.97;;;5.27;;
16975;SDS011;8604;48.148;-1.786;2023-06-22T01:57:35;8.57;;;4.57;;
16975;SDS011;8604;48.148;-1.786;2023-06-22T02:00:06;8.57;;;4.77;;
16975;SDS011;8604;48.148;-1.786;2023-06-22T02:02:45;7.13;;;4.53;;
16975;SDS011;8604;48.148;-1.786;2023-06-22T02:05:25;6.50;;;4.47;;
16975;SDS011;8604;48.148;-1.786;2023-06-22T02:07:57;8.73;;;4.83;;
16975;SDS011;8604;48.148;-1.786;2023-06-22T02:10:33;8.97;;;4.93;;
16975;SDS011;8604;48.148;-1.786;2023-06-22T02:13:05;8.57;;;4.77;;
16975;SDS011;8604;48.148;-1.786;2023-06-22T02:15:37;10.07;;;5.13;;
16975;SDS011;8604;48.148;-1.786;2023-06-22T02:18:06;8.73;;;4.70;;
16975;SDS011;8604;48.148;-1.786;2023-06-22T02:20:36;8.47;;;5.10;;
16975;SDS011;8604;48.148;-1.786;2023-06-22T02:23:05;7.73;;;4.80;;
16975;SDS011;8604;48.148;-1.786;2023-06-22T02:25:34;7.43;;;4.67;;
16975;SDS011;8604;48.148;-1.786;2023-06-22T02:28:03;8.90;;;4.77;;
16975;SDS011;8604;48.148;-1.786;2023-06-22T02:30:32;8.33;;;4.40;;
16975;SDS011;8604;48.148;-1.786;2023-06-22T02:33:02;8.50;;;5.03;;
16975;SDS011;8604;48.148;-1.786;2023-06-22T02:35:31;9.70;;;4.90;;
16975;SDS011;8604;48.148;-1.786;2023-06-22T02:38:03;8.47;;;4.63;;
16975;SDS011;8604;48.148;-1.786;2023-06-22T02:40:32;8.00;;;4.97;;
16975;SDS011;8604;48.148;-1.786;2023-06-22T02:43:00;8.40;;;4.77;;
16975;SDS011;8604;48.148;-1.786;2023-06-22T02:45:30;7.33;;;4.53;;
16975;SDS011;8604;48.148;-1.786;2023-06-22T02:47:59;8.03;;;5.00;;
16975;SDS011;8604;48.148;-1.786;2023-06-22T02:50:29;7.97;;;4.97;;
16975;SDS011;8604;48.148;-1.786;2023-06-22T02:52:59;8.47;;;4.33;;
16975;SDS011;8604;48.148;-1.786;2023-06-22T02:55:30;9.00;;;4.60;;
16975;SDS011;8604;48.148;-1.786;2023-06-22T02:57:59;9.47;;;5.20;;
16975;SDS011;8604;48.148;-1.786;2023-06-22T03:00:34;7.00;;;4.70;;
16975;SDS011;8604;48.148;-1.786;2023-06-22T03:03:03;7.50;;;4.90;;
16975;SDS011;8604;48.148;-1.786;2023-06-22T03:05:32;9.73;;;5.03;;
16975;SDS011;8604;48.148;-1.786;2023-06-22T03:08:02;7.40;;;4.73;;
16975;SDS011;8604;48.148;-1.786;2023-06-22T03:10:33;8.07;;;5.17;;
16975;SDS011;8604;48.148;-1.786;2023-06-22T03:13:02;8.50;;;4.60;;
16975;SDS011;8604;48.148;-1.786;2023-06-22T03:15:30;10.47;;;4.90;;
16975;SDS011;8604;48.148;-1.786;2023-06-22T03:18:00;8.47;;;5.03;;
16975;SDS011;8604;48.148;-1.786;2023-06-22T03:20:30;8.30;;;4.83;;
16975;SDS011;8604;48.148;-1.786;2023-06-22T03:23:00;8.77;;;5.10;;
16975;SDS011;8604;48.148;-1.786;2023-06-22T03:25:28;7.70;;;5.10;;
16975;SDS011;8604;48.148;-1.786;2023-06-22T03:27:58;8.87;;;5.47;;
16975;SDS011;8604;48.148;-1.786;2023-06-22T03:30:27;8.13;;;4.93;;
16975;SDS011;8604;48.148;-1.786;2023-06-22T03:32:56;7.70;;;5.30;;
16975;SDS011;8604;48.148;-1.786;2023-06-22T03:35:25;8.93;;;5.03;;
16975;SDS011;8604;48.148;-1.786;2023-06-22T03:37:56;9.63;;;5.23;;
16975;SDS011;8604;48.148;-1.786;2023-06-22T03:40:24;9.33;;;5.67;;
16975;SDS011;8604;48.148;-1.786;2023-06-22T03:42:53;7.33;;;5.10;;
16975;SDS011;8604;48.148;-1.786;2023-06-22T03:45:22;8.37;;;5.37;;
16975;SDS011;8604;48.148;-1.786;2023-06-22T03:47:50;8.00;;;5.00;;
16975;SDS011;8604;48.148;-1.786;2023-06-22T03:50:18;7.57;;;5.23;;
16975;SDS011;8604;48.148;-1.786;2023-06-22T03:52:47;8.70;;;5.00;;
16975;SDS011;8604;48.148;-1.786;2023-06-22T03:55:19;8.03;;;5.20;;
16975;SDS011;8604;48.148;-1.786;2023-06-22T03:57:48;7.50;;;5.37;;
16975;SDS011;8604;48.148;-1.786;2023-06-22T04:00:16;9.67;;;5.63;;
16975;SDS011;8604;48.148;-1.786;2023-06-22T04:02:45;9.27;;;5.20;;
16975;SDS011;8604;48.148;-1.786;2023-06-22T04:05:13;8.67;;;5.03;;
16975;SDS011;8604;48.148;-1.786;2023-06-22T04:07:44;8.40;;;4.70;;
16975;SDS011;8604;48.148;-1.786;2023-06-22T04:10:12;8.00;;;5.00;;
16975;SDS011;8604;48.148;-1.786;2023-06-22T04:12:45;8.73;;;5.40;;
16975;SDS011;8604;48.148;-1.786;2023-06-22T04:15:14;9.27;;;5.03;;
16975;SDS011;8604;48.148;-1.786;2023-06-22T04:17:43;7.63;;;4.77;;
16975;SDS011;8604;48.148;-1.786;2023-06-22T04:20:12;9.10;;;5.07;;
16975;SDS011;8604;48.148;-1.786;2023-06-22T04:22:40;8.13;;;5.30;;
16975;SDS011;8604;48.148;-1.786;2023-06-22T04:25:08;7.63;;;4.77;;
16975;SDS011;8604;48.148;-1.786;2023-06-22T04:27:37;8.50;;;4.63;;
16975;SDS011;8604;48.148;-1.786;2023-06-22T04:30:08;8.27;;;4.90;;
16975;SDS011;8604;48.148;-1.786;2023-06-22T04:32:37;6.90;;;4.37;;
16975;SDS011;8604;48.148;-1.786;2023-06-22T04:35:09;8.27;;;4.77;;
16975;SDS011;8604;48.148;-1.786;2023-06-22T04:37:37;7.73;;;5.00;;
16975;SDS011;8604;48.148;-1.786;2023-06-22T04:40:07;9.67;;;5.50;;
16975;SDS011;8604;48.148;-1.786;2023-06-22T04:45:09;7.97;;;5.07;;
16975;SDS011;8604;48.148;-1.786;2023-06-22T04:47:38;7.87;;;4.90;;
16975;SDS011;8604;48.148;-1.786;2023-06-22T04:50:07;8.10;;;4.90;;
16975;SDS011;8604;48.148;-1.786;2023-06-22T04:52:36;7.00;;;4.70;;
16975;SDS011;8604;48.148;-1.786;2023-06-22T04:55:05;8.57;;;5.20;;
16975;SDS011;8604;48.148;-1.786;2023-06-22T04:57:35;8.00;;;4.67;;
16975;SDS011;8604;48.148;-1.786;2023-06-22T05:00:06;7.80;;;4.30;;
16975;SDS011;8604;48.148;-1.786;2023-06-22T05:02:43;6.60;;;4.53;;
16975;SDS011;8604;48.148;-1.786;2023-06-22T05:05:12;8.50;;;4.97;;
16975;SDS011;8604;48.148;-1.786;2023-06-22T05:07:42;8.67;;;4.70;;
16975;SDS011;8604;48.148;-1.786;2023-06-22T05:10:11;9.13;;;4.90;;
16975;SDS011;8604;48.148;-1.786;2023-06-22T05:12:40;7.20;;;4.90;;
16975;SDS011;8604;48.148;-1.786;2023-06-22T05:15:10;6.97;;;5.00;;
16975;SDS011;8604;48.148;-1.786;2023-06-22T05:17:39;9.83;;;5.23;;
16975;SDS011;8604;48.148;-1.786;2023-06-22T05:20:10;7.83;;;5.10;;
16975;SDS011;8604;48.148;-1.786;2023-06-22T05:22:39;7.97;;;4.97;;
16975;SDS011;8604;48.148;-1.786;2023-06-22T05:25:10;7.73;;;5.10;;
16975;SDS011;8604;48.148;-1.786;2023-06-22T05:27:41;7.60;;;4.93;;
16975;SDS011;8604;48.148;-1.786;2023-06-22T05:30:15;8.20;;;5.10;;
16975;SDS011;8604;48.148;-1.786;2023-06-22T05:35:49;10.33;;;5.13;;
16975;SDS011;8604;48.148;-1.786;2023-06-22T05:38:40;9.60;;;5.27;;
16975;SDS011;8604;48.148;-1.786;2023-06-22T05:41:15;8.50;;;5.30;;
16975;SDS011;8604;48.148;-1.786;2023-06-22T07:51:53;4.73;;;3.57;;
16975;SDS011;8604;48.148;-1.786;2023-06-22T07:54:22;8.60;;;4.03;;
16975;SDS011;8604;48.148;-1.786;2023-06-22T07:56:51;5.17;;;3.13;;
16975;SDS011;8604;48.148;-1.786;2023-06-22T07:59:20;7.93;;;3.60;;
16975;SDS011;8604;48.148;-1.786;2023-06-22T08:01:51;6.00;;;3.40;;
16975;SDS011;8604;48.148;-1.786;2023-06-22T08:04:21;6.28;;;3.38;;
16975;SDS011;8604;48.148;-1.786;2023-06-22T08:06:58;6.00;;;3.20;;
16975;SDS011;8604;48.148;-1.786;2023-06-22T08:09:27;7.07;;;3.60;;
16975;SDS011;8604;48.148;-1.786;2023-06-22T08:11:57;5.40;;;3.10;;
16975;SDS011;8604;48.148;-1.786;2023-06-22T08:14:29;6.18;;;3.22;;
16975;SDS011;8604;48.148;-1.786;2023-06-22T08:16:58;5.97;;;3.30;;
16975;SDS011;8604;48.148;-1.786;2023-06-22T08:19:33;7.60;;;3.50;;
16975;SDS011;8604;48.148;-1.786;2023-06-22T08:22:04;5.57;;;3.25;;
16975;SDS011;8604;48.148;-1.786;2023-06-22T08:24:33;6.00;;;3.00;;
16975;SDS011;8604;48.148;-1.786;2023-06-22T08:27:15;4.72;;;3.30;;
16975;SDS011;8604;48.148;-1.786;2023-06-22T08:29:55;6.22;;;3.20;;
16975;SDS011;8604;48.148;-1.786;2023-06-22T08:32:28;6.28;;;3.10;;
16975;SDS011;8604;48.148;-1.786;2023-06-22T08:35:01;6.35;;;3.38;;
16975;SDS011;8604;48.148;-1.786;2023-06-22T08:37:36;6.20;;;3.00;;
16975;SDS011;8604;48.148;-1.786;2023-06-22T08:40:09;5.00;;;3.17;;
16975;SDS011;8604;48.148;-1.786;2023-06-22T08:42:40;4.97;;;3.08;;
16975;SDS011;8604;48.148;-1.786;2023-06-22T08:45:10;5.57;;;3.10;;
16975;SDS011;8604;48.148;-1.786;2023-06-22T08:47:39;5.88;;;3.33;;
16975;SDS011;8604;48.148;-1.786;2023-06-22T08:50:08;5.93;;;3.40;;
16975;SDS011;8604;48.148;-1.786;2023-06-22T08:52:41;5.55;;;3.20;;
16975;SDS011;8604;48.148;-1.786;2023-06-22T08:55:14;6.00;;;3.20;;
16975;SDS011;8604;48.148;-1.786;2023-06-22T08:57:46;5.78;;;3.08;;
16975;SDS011;8604;48.148;-1.786;2023-06-22T09:00:18;8.30;;;3.80;;
16975;SDS011;8604;48.148;-1.786;2023-06-22T09:02:48;4.78;;;2.80;;
16975;SDS011;8604;48.148;-1.786;2023-06-22T09:05:23;6.45;;;2.90;;
16975;SDS011;8604;48.148;-1.786;2023-06-22T09:07:57;5.47;;;3.30;;
16975;SDS011;8604;48.148;-1.786;2023-06-22T09:10:30;6.47;;;3.05;;
16975;SDS011;8604;48.148;-1.786;2023-06-22T09:13:14;5.05;;;3.00;;
16975;SDS011;8604;48.148;-1.786;2023-06-22T09:15:45;4.55;;;2.90;;
16975;SDS011;8604;48.148;-1.786;2023-06-22T09:18:14;5.03;;;3.40;;
16975;SDS011;8604;48.148;-1.786;2023-06-22T09:20:43;5.78;;;3.13;;
16975;SDS011;8604;48.148;-1.786;2023-06-22T09:23:14;5.57;;;2.97;;
16975;SDS011;8604;48.148;-1.786;2023-06-22T09:25:45;5.00;;;2.80;;
16975;SDS011;8604;48.148;-1.786;2023-06-22T09:28:21;5.68;;;2.95;;
16975;SDS011;8604;48.148;-1.786;2023-06-22T09:31:08;5.15;;;2.88;;
16975;SDS011;8604;48.148;-1.786;2023-06-22T09:57:42;4.65;;;2.90;;
16975;SDS011;8604;48.148;-1.786;2023-06-22T10:00:50;4.53;;;2.90;;
16975;SDS011;8604;48.148;-1.786;2023-06-22T10:03:19;5.15;;;3.08;;
16975;SDS011;8604;48.148;-1.786;2023-06-22T10:05:49;3.88;;;2.90;;
16975;SDS011;8604;48.148;-1.786;2023-06-22T10:08:18;6.18;;;3.20;;
16975;SDS011;8604;48.148;-1.786;2023-06-22T10:10:48;5.82;;;3.00;;
16975;SDS011;8604;48.148;-1.786;2023-06-22T10:13:19;6.38;;;3.15;;
16975;SDS011;8604;48.148;-1.786;2023-06-22T10:15:48;6.13;;;3.08;;
16975;SDS011;8604;48.148;-1.786;2023-06-22T10:18:18;5.03;;;3.17;;
16975;SDS011;8604;48.148;-1.786;2023-06-22T10:20:48;6.63;;;3.45;;
16975;SDS011;8604;48.148;-1.786;2023-06-22T10:23:18;5.55;;;3.28;;
16975;SDS011;8604;48.148;-1.786;2023-06-22T10:25:49;4.80;;;3.00;;
16975;SDS011;8604;48.148;-1.786;2023-06-22T10:28:18;5.57;;;3.00;;
16975;SDS011;8604;48.148;-1.786;2023-06-22T10:30:53;4.68;;;3.40;;
16975;SDS011;8604;48.148;-1.786;2023-06-22T12:18:04;5.70;;;3.50;;
16975;SDS011;8604;48.148;-1.786;2023-06-22T12:20:33;5.75;;;3.60;;
16975;SDS011;8604;48.148;-1.786;2023-06-22T12:23:02;6.20;;;3.47;;
16975;SDS011;8604;48.148;-1.786;2023-06-22T12:25:30;7.03;;;3.67;;
16975;SDS011;8604;48.148;-1.786;2023-06-22T12:28:01;5.70;;;3.65;;
16975;SDS011;8604;48.148;-1.786;2023-06-22T12:30:32;5.45;;;3.45;;
16975;SDS011;8604;48.148;-1.786;2023-06-22T12:33:02;5.68;;;3.38;;
16975;SDS011;8604;48.148;-1.786;2023-06-22T12:35:31;6.10;;;3.35;;
16975;SDS011;8604;48.148;-1.786;2023-06-22T12:38:00;4.05;;;2.85;;
16975;SDS011;8604;48.148;-1.786;2023-06-22T12:40:29;6.38;;;3.25;;
16975;SDS011;8604;48.148;-1.786;2023-06-22T12:42:59;5.13;;;3.15;;
16975;SDS011;8604;48.148;-1.786;2023-06-22T12:45:29;5.20;;;3.40;;
16975;SDS011;8604;48.148;-1.786;2023-06-22T12:48:00;5.95;;;3.65;;
16975;SDS011;8604;48.148;-1.786;2023-06-22T12:50:30;5.90;;;3.50;;
16975;SDS011;8604;48.148;-1.786;2023-06-22T12:53:01;5.15;;;3.30;;
16975;SDS011;8604;48.148;-1.786;2023-06-22T12:55:31;5.70;;;3.35;;
16975;SDS011;8604;48.148;-1.786;2023-06-22T12:58:25;5.15;;;3.42;;
16975;SDS011;8604;48.148;-1.786;2023-06-22T13:00:53;4.88;;;3.30;;
16975;SDS011;8604;48.148;-1.786;2023-06-22T13:03:22;5.25;;;3.30;;
16975;SDS011;8604;48.148;-1.786;2023-06-22T13:05:54;4.10;;;3.20;;
16975;SDS011;8604;48.148;-1.786;2023-06-22T13:08:23;6.28;;;3.60;;
16975;SDS011;8604;48.148;-1.786;2023-06-22T13:11:13;7.35;;;3.65;;
16975;SDS011;8604;48.148;-1.786;2023-06-22T13:13:43;4.90;;;2.95;;
16975;SDS011;8604;48.148;-1.786;2023-06-22T13:16:15;5.82;;;3.38;;
16975;SDS011;8604;48.148;-1.786;2023-06-22T13:19:37;4.85;;;3.28;;
16975;SDS011;8604;48.148;-1.786;2023-06-22T13:22:09;6.30;;;3.63;;
16975;SDS011;8604;48.148;-1.786;2023-06-22T13:24:55;4.90;;;3.30;;
16975;SDS011;8604;48.148;-1.786;2023-06-22T13:27:23;4.65;;;3.30;;
16975;SDS011;8604;48.148;-1.786;2023-06-22T13:29:52;7.88;;;3.60;;
16975;SDS011;8604;48.148;-1.786;2023-06-22T13:32:21;7.32;;;3.40;;
16975;SDS011;8604;48.148;-1.786;2023-06-22T13:34:51;5.43;;;3.40;;
16975;SDS011;8604;48.148;-1.786;2023-06-22T13:37:21;5.15;;;3.50;;
16975;SDS011;8604;48.148;-1.786;2023-06-22T13:39:50;4.60;;;2.95;;
16975;SDS011;8604;48.148;-1.786;2023-06-22T13:42:19;4.95;;;2.90;;
16975;SDS011;8604;48.148;-1.786;2023-06-22T13:44:47;4.80;;;3.15;;
16975;SDS011;8604;48.148;-1.786;2023-06-22T13:47:16;4.38;;;2.88;;
16975;SDS011;8604;48.148;-1.786;2023-06-22T13:49:44;5.18;;;2.78;;
16975;SDS011;8604;48.148;-1.786;2023-06-22T13:52:12;4.28;;;3.03;;
16975;SDS011;8604;48.148;-1.786;2023-06-22T13:54:42;4.65;;;2.70;;
16975;SDS011;8604;48.148;-1.786;2023-06-22T13:57:11;4.80;;;3.05;;
16975;SDS011;8604;48.148;-1.786;2023-06-22T13:59:39;4.72;;;2.70;;
16975;SDS011;8604;48.148;-1.786;2023-06-22T14:07:59;4.40;;;2.70;;
16975;SDS011;8604;48.148;-1.786;2023-06-22T14:10:32;4.50;;;2.60;;
16975;SDS011;8604;48.148;-1.786;2023-06-22T14:13:01;5.80;;;3.00;;
16975;SDS011;8604;48.148;-1.786;2023-06-22T14:15:32;3.97;;;2.53;;
16975;SDS011;8604;48.148;-1.786;2023-06-22T14:18:01;4.00;;;2.65;;
16975;SDS011;8604;48.148;-1.786;2023-06-22T14:20:30;4.57;;;2.63;;
16975;SDS011;8604;48.148;-1.786;2023-06-22T14:22:59;3.63;;;2.67;;
16975;SDS011;8604;48.148;-1.786;2023-06-22T14:25:28;4.68;;;2.72;;
16975;SDS011;8604;48.148;-1.786;2023-06-22T14:27:58;4.07;;;2.70;;
16975;SDS011;8604;48.148;-1.786;2023-06-22T14:30:27;4.90;;;2.97;;
16975;SDS011;8604;48.148;-1.786;2023-06-22T14:32:56;3.80;;;2.60;;
16975;SDS011;8604;48.148;-1.786;2023-06-22T14:35:25;3.85;;;2.55;;
16975;SDS011;8604;48.148;-1.786;2023-06-22T14:37:54;4.85;;;2.70;;
16975;SDS011;8604;48.148;-1.786;2023-06-22T14:40:22;4.78;;;2.67;;
16975;SDS011;8604;48.148;-1.786;2023-06-22T14:42:52;2.95;;;2.30;;
16975;SDS011;8604;48.148;-1.786;2023-06-22T14:45:24;5.57;;;2.67;;
16975;SDS011;8604;48.148;-1.786;2023-06-22T14:47:53;3.50;;;2.50;;
16975;SDS011;8604;48.148;-1.786;2023-06-22T14:50:22;3.88;;;2.50;;
16975;SDS011;8604;48.148;-1.786;2023-06-22T14:52:51;4.85;;;2.40;;
16975;SDS011;8604;48.148;-1.786;2023-06-22T14:55:19;4.25;;;2.60;;
16975;SDS011;8604;48.148;-1.786;2023-06-22T14:57:48;4.15;;;2.40;;
16975;SDS011;8604;48.148;-1.786;2023-06-22T15:00:17;4.95;;;2.50;;
16975;SDS011;8604;48.148;-1.786;2023-06-22T15:02:48;5.63;;;2.60;;
16975;SDS011;8604;48.148;-1.786;2023-06-22T15:05:18;3.58;;;2.25;;
16975;SDS011;8604;48.148;-1.786;2023-06-22T15:07:50;3.42;;;2.63;;
16975;SDS011;8604;48.148;-1.786;2023-06-22T15:10:18;4.20;;;2.42;;
16975;SDS011;8604;48.148;-1.786;2023-06-22T15:12:47;3.08;;;2.35;;
16975;SDS011;8604;48.148;-1.786;2023-06-22T15:15:16;3.00;;;2.35;;
16975;SDS011;8604;48.148;-1.786;2023-06-22T15:17:44;3.25;;;2.33;;
16975;SDS011;8604;48.148;-1.786;2023-06-22T15:20:14;3.85;;;2.35;;
16975;SDS011;8604;48.148;-1.786;2023-06-22T15:22:43;5.32;;;2.90;;
16975;SDS011;8604;48.148;-1.786;2023-06-22T15:25:12;3.75;;;2.65;;
16975;SDS011;8604;48.148;-1.786;2023-06-22T15:27:40;4.70;;;2.47;;
16975;SDS011;8604;48.148;-1.786;2023-06-22T15:30:09;3.97;;;2.30;;
16975;SDS011;8604;48.148;-1.786;2023-06-22T15:32:38;3.60;;;2.33;;
16975;SDS011;8604;48.148;-1.786;2023-06-22T15:35:10;4.90;;;2.55;;
16975;SDS011;8604;48.148;-1.786;2023-06-22T15:37:40;3.45;;;2.30;;
16975;SDS011;8604;48.148;-1.786;2023-06-22T15:40:09;3.17;;;2.30;;
16975;SDS011;8604;48.148;-1.786;2023-06-22T15:43:12;5.37;;;2.50;;
16975;SDS011;8604;48.148;-1.786;2023-06-22T15:46:15;4.23;;;2.20;;
16975;SDS011;8604;48.148;-1.786;2023-06-22T15:48:43;4.25;;;2.50;;
16975;SDS011;8604;48.148;-1.786;2023-06-22T15:54:14;4.00;;;2.30;;
16975;SDS011;8604;48.148;-1.786;2023-06-22T15:56:46;4.37;;;2.30;;
16975;SDS011;8604;48.148;-1.786;2023-06-22T15:59:19;3.67;;;2.60;;
16975;SDS011;8604;48.148;-1.786;2023-06-22T16:01:48;3.67;;;2.37;;
16975;SDS011;8604;48.148;-1.786;2023-06-22T16:04:17;4.03;;;2.50;;
16975;SDS011;8604;48.148;-1.786;2023-06-22T16:06:59;3.63;;;2.20;;
16975;SDS011;8604;48.148;-1.786;2023-06-22T16:09:48;3.40;;;2.40;;
16975;SDS011;8604;48.148;-1.786;2023-06-22T16:12:17;3.03;;;2.30;;
16975;SDS011;8604;48.148;-1.786;2023-06-22T16:14:45;4.50;;;2.40;;
16975;SDS011;8604;48.148;-1.786;2023-06-22T16:17:14;4.73;;;2.73;;
16975;SDS011;8604;48.148;-1.786;2023-06-22T16:19:43;7.13;;;5.07;;
16975;SDS011;8604;48.148;-1.786;2023-06-22T16:22:12;5.63;;;3.23;;
16975;SDS011;8604;48.148;-1.786;2023-06-22T16:24:44;4.63;;;2.40;;
16975;SDS011;8604;48.148;-1.786;2023-06-22T16:27:20;3.50;;;2.20;;
16975;SDS011;8604;48.148;-1.786;2023-06-22T16:29:50;4.40;;;2.70;;
16975;SDS011;8604;48.148;-1.786;2023-06-22T16:32:19;4.63;;;2.83;;
16975;SDS011;8604;48.148;-1.786;2023-06-22T16:34:48;6.00;;;2.80;;
16975;SDS011;8604;48.148;-1.786;2023-06-22T16:37:19;3.97;;;2.60;;
16975;SDS011;8604;48.148;-1.786;2023-06-22T16:39:48;4.57;;;3.17;;
16975;SDS011;8604;48.148;-1.786;2023-06-22T16:42:17;4.70;;;2.80;;
16975;SDS011;8604;48.148;-1.786;2023-06-22T16:44:47;4.70;;;2.73;;
16975;SDS011;8604;48.148;-1.786;2023-06-22T16:47:16;5.27;;;2.73;;
16975;SDS011;8604;48.148;-1.786;2023-06-22T16:49:44;5.50;;;3.03;;
16975;SDS011;8604;48.148;-1.786;2023-06-22T16:52:13;4.30;;;2.70;;
16975;SDS011;8604;48.148;-1.786;2023-06-22T16:54:41;4.33;;;2.80;;
16975;SDS011;8604;48.148;-1.786;2023-06-22T16:57:25;4.00;;;2.77;;
16975;SDS011;8604;48.148;-1.786;2023-06-22T16:59:55;3.83;;;2.60;;
16975;SDS011;8604;48.148;-1.786;2023-06-22T17:02:24;6.07;;;3.10;;
16975;SDS011;8604;48.148;-1.786;2023-06-22T17:04:53;6.13;;;3.10;;
16975;SDS011;8604;48.148;-1.786;2023-06-22T17:07:24;5.03;;;2.90;;
16975;SDS011;8604;48.148;-1.786;2023-06-22T17:09:54;4.77;;;2.80;;
16975;SDS011;8604;48.148;-1.786;2023-06-22T17:12:24;4.60;;;2.97;;
16975;SDS011;8604;48.148;-1.786;2023-06-22T17:14:54;5.57;;;2.90;;
16975;SDS011;8604;48.148;-1.786;2023-06-22T17:17:26;6.90;;;2.97;;
16975;SDS011;8604;48.148;-1.786;2023-06-22T17:19:57;6.07;;;3.00;;
16975;SDS011;8604;48.148;-1.786;2023-06-22T17:22:25;5.00;;;2.93;;
16975;SDS011;8604;48.148;-1.786;2023-06-22T17:24:59;5.00;;;2.77;;
16975;SDS011;8604;48.148;-1.786;2023-06-22T17:27:28;5.13;;;3.00;;
16975;SDS011;8604;48.148;-1.786;2023-06-22T17:30:08;4.83;;;2.97;;
16975;SDS011;8604;48.148;-1.786;2023-06-22T17:32:37;4.20;;;2.83;;
16975;SDS011;8604;48.148;-1.786;2023-06-22T17:35:06;4.20;;;2.97;;
16975;SDS011;8604;48.148;-1.786;2023-06-22T17:37:46;5.20;;;3.03;;
16975;SDS011;8604;48.148;-1.786;2023-06-22T17:40:16;5.10;;;3.00;;
16975;SDS011;8604;48.148;-1.786;2023-06-22T17:42:45;5.17;;;3.03;;
16975;SDS011;8604;48.148;-1.786;2023-06-22T17:45:16;6.13;;;2.80;;
16975;SDS011;8604;48.148;-1.786;2023-06-22T17:47:46;4.80;;;3.00;;
16975;SDS011;8604;48.148;-1.786;2023-06-22T17:50:16;5.17;;;2.80;;
16975;SDS011;8604;48.148;-1.786;2023-06-22T17:52:48;4.97;;;2.80;;
16975;SDS011;8604;48.148;-1.786;2023-06-22T17:55:19;4.33;;;2.90;;
16975;SDS011;8604;48.148;-1.786;2023-06-22T17:57:49;4.43;;;2.70;;
16975;SDS011;8604;48.148;-1.786;2023-06-22T18:00:24;4.67;;;2.70;;
16975;SDS011;8604;48.148;-1.786;2023-06-22T18:02:53;5.03;;;3.00;;
16975;SDS011;8604;48.148;-1.786;2023-06-22T18:05:29;5.50;;;3.10;;
16975;SDS011;8604;48.148;-1.786;2023-06-22T18:08:00;4.47;;;2.77;;
16975;SDS011;8604;48.148;-1.786;2023-06-22T18:10:30;5.43;;;2.90;;
16975;SDS011;8604;48.148;-1.786;2023-06-22T18:13:00;3.90;;;2.90;;
16975;SDS011;8604;48.148;-1.786;2023-06-22T18:15:32;4.17;;;2.70;;
16975;SDS011;8604;48.148;-1.786;2023-06-22T18:18:05;5.10;;;3.20;;
16975;SDS011;8604;48.148;-1.786;2023-06-22T18:22:08;5.47;;;2.90;;
16975;SDS011;8604;48.148;-1.786;2023-06-22T18:24:00;5.10;;;2.83;;
16975;SDS011;8604;48.148;-1.786;2023-06-22T18:26:40;4.00;;;2.50;;
16975;SDS011;8604;48.148;-1.786;2023-06-22T18:29:11;4.83;;;2.60;;
16975;SDS011;8604;48.148;-1.786;2023-06-22T18:31:41;4.23;;;2.90;;
16975;SDS011;8604;48.148;-1.786;2023-06-22T18:34:21;4.97;;;3.13;;
16975;SDS011;8604;48.148;-1.786;2023-06-22T18:40:11;4.30;;;2.93;;
16975;SDS011;8604;48.148;-1.786;2023-06-22T20:31:22;5.17;;;3.10;;
16975;SDS011;8604;48.148;-1.786;2023-06-22T20:34:01;6.67;;;3.53;;
16975;SDS011;8604;48.148;-1.786;2023-06-22T20:39:29;5.77;;;3.33;;
16975;SDS011;8604;48.148;-1.786;2023-06-22T20:41:58;6.90;;;3.30;;
16975;SDS011;8604;48.148;-1.786;2023-06-22T20:44:27;4.83;;;3.27;;
16975;SDS011;8604;48.148;-1.786;2023-06-22T20:46:57;6.43;;;3.30;;
16975;SDS011;8604;48.148;-1.786;2023-06-22T20:49:26;4.73;;;3.20;;
16975;SDS011;8604;48.148;-1.786;2023-06-22T20:51:54;6.40;;;3.70;;
16975;SDS011;8604;48.148;-1.786;2023-06-22T20:54:24;5.63;;;3.77;;
16975;SDS011;8604;48.148;-1.786;2023-06-22T20:56:52;5.90;;;3.50;;
16975;SDS011;8604;48.148;-1.786;2023-06-22T20:59:21;5.77;;;3.70;;
16975;SDS011;8604;48.148;-1.786;2023-06-22T21:01:50;6.20;;;3.60;;
16975;SDS011;8604;48.148;-1.786;2023-06-22T21:07:19;6.33;;;3.70;;
16975;SDS011;8604;48.148;-1.786;2023-06-22T21:09:47;6.83;;;3.80;;
16975;SDS011;8604;48.148;-1.786;2023-06-22T21:12:18;6.67;;;4.23;;
16975;SDS011;8604;48.148;-1.786;2023-06-22T21:14:47;8.57;;;4.03;;
16975;SDS011;8604;48.148;-1.786;2023-06-22T21:17:16;6.60;;;4.20;;
16975;SDS011;8604;48.148;-1.786;2023-06-22T21:19:47;6.33;;;3.93;;
16975;SDS011;8604;48.148;-1.786;2023-06-22T21:22:16;5.87;;;3.73;;
16975;SDS011;8604;48.148;-1.786;2023-06-22T21:25:02;7.43;;;4.00;;
16975;SDS011;8604;48.148;-1.786;2023-06-22T21:27:32;6.33;;;4.00;;
16975;SDS011;8604;48.148;-1.786;2023-06-22T21:30:01;7.33;;;4.00;;
16975;SDS011;8604;48.148;-1.786;2023-06-22T21:32:31;6.07;;;3.73;;
16975;SDS011;8604;48.148;-1.786;2023-06-22T21:35:01;6.60;;;3.93;;
16975;SDS011;8604;48.148;-1.786;2023-06-22T21:37:31;6.27;;;4.07;;
16975;SDS011;8604;48.148;-1.786;2023-06-22T21:39:59;5.57;;;4.03;;
16975;SDS011;8604;48.148;-1.786;2023-06-22T21:42:27;6.77;;;4.43;;